createdAt,value
2023-01-13T00:02:26.489Z,22.27
2023-01-13T00:04:57.412Z,22.24
2023-01-13T00:07:28.244Z,22.23
2023-01-13T00:09:58.986Z,22.23
2023-01-13T00:12:29.823Z,22.21
2023-01-13T00:15:00.480Z,22.19
2023-01-13T00:17:31.198Z,22.18
2023-01-13T00:20:01.932Z,22.16
2023-01-13T00:22:37.890Z,22.13
2023-01-13T00:25:10.168Z,22.11
2023-01-13T00:27:41.166Z,22.08
2023-01-13T00:30:13.804Z,22.08
2023-01-13T00:32:45.147Z,22.05
2023-01-13T00:35:16.192Z,22.01
2023-01-13T00:37:46.908Z,21.98
2023-01-13T00:40:18.335Z,21.96
2023-01-13T00:43:06.872Z,21.97
2023-01-13T00:45:39.293Z,21.96
2023-01-13T00:48:10.005Z,21.94
2023-01-13T00:50:41.185Z,21.92
2023-01-13T00:53:12.745Z,21.89
2023-01-13T00:55:43.679Z,21.86
2023-01-13T00:58:14.369Z,21.86
2023-01-13T01:00:46.092Z,21.84
2023-01-13T01:03:19.174Z,21.84
2023-01-13T01:05:50.131Z,21.82
2023-01-13T01:08:20.953Z,21.81
2023-01-13T01:10:51.620Z,21.81
2023-01-13T01:13:22.325Z,21.79
2023-01-13T01:15:53.165Z,21.78
2023-01-13T01:18:24.135Z,21.77
2023-01-13T01:20:55.022Z,21.74
2023-01-13T01:23:25.667Z,21.73
2023-01-13T01:25:56.751Z,21.72
2023-01-13T01:28:27.461Z,21.70
2023-01-13T01:30:59.981Z,21.66
2023-01-13T01:33:31.090Z,21.64
2023-01-13T01:36:03.495Z,21.61
2023-01-13T01:38:36.567Z,21.58
2023-01-13T01:41:07.548Z,21.56
2023-01-13T01:44:07.310Z,21.55
2023-01-13T01:46:40.242Z,21.50
2023-01-13T01:49:19.205Z,21.50
2023-01-13T01:51:54.429Z,21.50
2023-01-13T01:54:35.451Z,21.49
2023-01-13T01:57:08.619Z,21.49
2023-01-13T01:59:40.383Z,21.48
2023-01-13T02:02:11.605Z,21.46
2023-01-13T02:04:50.954Z,21.44
2023-01-13T02:07:25.381Z,21.42
2023-01-13T02:09:58.004Z,21.41
2023-01-13T02:12:30.445Z,21.41
2023-01-13T02:15:04.410Z,21.41
2023-01-13T02:17:51.260Z,21.38
2023-01-13T02:21:00.303Z,21.36
2023-01-13T02:24:34.163Z,21.36
2023-01-13T02:27:35.587Z,21.32
2023-01-13T02:30:37.128Z,21.29
2023-01-13T02:33:20.876Z,21.24
2023-01-13T02:35:55.839Z,21.20
2023-01-13T02:38:34.613Z,21.17
2023-01-13T02:41:23.798Z,21.15
2023-01-13T02:44:09.178Z,21.12
2023-01-13T02:46:47.868Z,21.09
2023-01-13T02:49:25.259Z,21.08
2023-01-13T02:52:01.428Z,21.07
2023-01-13T02:54:34.618Z,21.04
2023-01-13T02:57:06.382Z,21.03
2023-01-13T02:59:38.718Z,21.01
2023-01-13T03:02:14.064Z,21.00
2023-01-13T03:05:01.926Z,20.96
2023-01-13T03:07:58.512Z,20.91
2023-01-13T03:10:37.265Z,20.89
2023-01-13T03:13:20.825Z,20.90
2023-01-13T03:16:01.318Z,20.89
2023-01-13T03:18:42.670Z,20.88
2023-01-13T03:21:21.528Z,20.88
2023-01-13T03:24:00.079Z,20.88
2023-01-13T03:26:38.077Z,20.89
2023-01-13T03:29:21.485Z,20.88
2023-01-13T03:31:59.088Z,20.85
2023-01-13T03:34:35.684Z,20.82
2023-01-13T03:37:10.188Z,20.82
2023-01-13T03:39:48.254Z,20.81
2023-01-13T03:42:24.425Z,20.82
2023-01-13T03:45:00.699Z,20.79
2023-01-13T03:47:36.826Z,20.78
2023-01-13T03:50:13.093Z,20.75
2023-01-13T03:52:51.109Z,20.73
2023-01-13T03:55:26.398Z,20.70
2023-01-13T03:58:02.682Z,20.67
2023-01-13T04:00:38.872Z,20.62
2023-01-13T04:03:13.009Z,20.60
2023-01-13T04:05:48.315Z,20.61
2023-01-13T04:08:23.050Z,20.64
2023-01-13T04:10:59.503Z,20.66
2023-01-13T04:13:34.064Z,20.68
2023-01-13T04:16:07.218Z,20.70
2023-01-13T04:18:40.382Z,20.73
2023-01-13T04:21:12.683Z,20.69
2023-01-13T04:23:43.699Z,20.66
2023-01-13T04:26:14.335Z,20.63
2023-01-13T04:28:45.322Z,20.61
2023-01-13T04:31:16.177Z,20.60
2023-01-13T04:33:46.956Z,20.59
2023-01-13T04:36:19.755Z,20.57
2023-01-13T04:38:51.285Z,20.57
2023-01-13T04:41:24.390Z,20.60
2023-01-13T04:43:55.282Z,20.64
2023-01-13T04:46:27.243Z,20.69
2023-01-13T04:48:57.981Z,20.71
2023-01-13T04:51:31.295Z,20.72
2023-01-13T04:54:02.069Z,20.72
2023-01-13T04:56:32.918Z,20.70
2023-01-13T04:59:03.862Z,20.73
2023-01-13T05:01:34.627Z,20.75
2023-01-13T05:04:05.757Z,20.77
2023-01-13T05:06:36.404Z,20.78
2023-01-13T05:09:07.146Z,20.76
2023-01-13T05:11:55.292Z,20.76
2023-01-13T05:14:43.281Z,20.77
2023-01-13T05:17:18.879Z,20.74
2023-01-13T05:19:49.537Z,20.74
2023-01-13T05:22:37.895Z,20.76
2023-01-13T05:25:24.582Z,20.77
2023-01-13T05:27:57.010Z,20.79
2023-01-13T05:30:30.042Z,20.79
2023-01-13T05:33:00.812Z,20.77
2023-01-13T05:35:31.552Z,20.76
2023-01-13T05:38:02.304Z,20.74
2023-01-13T05:40:50.633Z,20.71
2023-01-13T05:43:24.703Z,20.68
2023-01-13T05:46:00.352Z,20.67
2023-01-13T05:48:33.840Z,20.68
2023-01-13T05:51:06.607Z,20.70
2023-01-13T05:53:37.375Z,20.72
2023-01-13T05:56:09.917Z,20.75
2023-01-13T05:58:40.626Z,20.78
2023-01-13T06:01:12.052Z,20.80
2023-01-13T06:03:43.035Z,20.84
2023-01-13T06:06:13.973Z,20.87
2023-01-13T06:08:44.693Z,20.91
2023-01-13T06:11:15.945Z,20.94
2023-01-13T06:13:46.794Z,21.02
2023-01-13T06:16:17.688Z,21.06
2023-01-13T06:18:48.576Z,21.12
2023-01-13T06:21:19.323Z,21.15
2023-01-13T06:23:50.052Z,21.19
2023-01-13T06:26:25.203Z,21.19
2023-01-13T06:28:55.979Z,21.25
2023-01-13T06:31:28.709Z,21.28
2023-01-13T06:34:03.801Z,21.32
2023-01-13T06:36:39.810Z,21.36
2023-01-13T06:39:15.253Z,21.37
2023-01-13T06:42:04.105Z,21.41
2023-01-13T06:44:34.952Z,21.45
2023-01-13T06:47:06.163Z,21.47
2023-01-13T06:49:37.140Z,21.48
2023-01-13T06:52:08.427Z,21.49
2023-01-13T06:54:39.133Z,21.51
2023-01-13T06:57:09.798Z,21.52
2023-01-13T06:59:40.465Z,21.52
2023-01-13T07:02:11.207Z,21.53
2023-01-13T07:04:42.177Z,21.55
2023-01-13T07:07:13.196Z,21.56
2023-01-13T07:09:44.033Z,21.55
2023-01-13T07:12:14.897Z,21.55
2023-01-13T07:15:03.479Z,21.55
2023-01-13T07:17:34.288Z,21.53
2023-01-13T07:20:05.530Z,21.53
2023-01-13T07:22:36.339Z,21.52
2023-01-13T07:25:08.673Z,21.51
2023-01-13T07:27:39.662Z,21.52
2023-01-13T07:30:12.933Z,21.51
2023-01-13T07:32:43.732Z,21.50
2023-01-13T07:35:14.675Z,21.48
2023-01-13T07:37:45.387Z,21.48
2023-01-13T07:40:16.972Z,21.47
2023-01-13T07:43:05.614Z,21.45
2023-01-13T07:45:36.413Z,21.44
2023-01-13T07:48:07.828Z,21.44
2023-01-13T07:50:38.985Z,21.45
2023-01-13T07:53:09.789Z,21.43
2023-01-13T07:55:44.096Z,21.41
2023-01-13T07:58:16.077Z,21.38
2023-01-13T08:00:46.937Z,21.36
2023-01-13T08:03:17.558Z,21.34
2023-01-13T08:05:48.685Z,21.33
2023-01-13T08:08:19.335Z,21.33
2023-01-13T08:10:50.070Z,21.31
2023-01-13T08:13:21.717Z,21.30
2023-01-13T08:15:54.124Z,21.28
2023-01-13T08:18:25.230Z,21.26
2023-01-13T08:20:57.020Z,21.25
2023-01-13T08:23:27.752Z,21.24
2023-01-13T08:26:03.382Z,21.22
2023-01-13T08:28:34.670Z,21.18
2023-01-13T08:31:07.485Z,21.19
2023-01-13T08:33:38.797Z,21.17
2023-01-13T08:36:12.447Z,21.16
2023-01-13T08:38:41.997Z,21.16
2023-01-13T08:41:14.317Z,21.14
2023-01-13T08:43:45.217Z,21.14
2023-01-13T08:46:15.911Z,21.13
2023-01-13T08:48:47.034Z,21.12
2023-01-13T08:51:17.851Z,21.11
2023-01-13T08:53:48.528Z,21.13
2023-01-13T08:56:19.233Z,21.14
2023-01-13T08:58:49.998Z,21.13
2023-01-13T09:01:25.037Z,21.10
2023-01-13T09:03:56.611Z,21.07
2023-01-13T09:06:27.538Z,21.07
2023-01-13T09:08:58.275Z,21.08
2023-01-13T09:11:53.120Z,21.07
2023-01-13T09:14:25.913Z,21.06
2023-01-13T09:16:56.665Z,21.06
2023-01-13T09:19:27.491Z,21.06
2023-01-13T09:21:58.589Z,21.05
2023-01-13T09:24:29.770Z,21.04
2023-01-13T09:27:00.759Z,21.02
2023-01-13T09:29:31.704Z,20.99
2023-01-13T09:32:02.495Z,20.97
2023-01-13T09:34:50.939Z,20.95
2023-01-13T09:37:21.635Z,20.95
2023-01-13T09:39:52.421Z,20.95
2023-01-13T09:42:47.108Z,20.92
2023-01-13T09:45:21.948Z,20.89
2023-01-13T09:47:58.455Z,20.90
2023-01-13T09:50:39.723Z,20.89
2023-01-13T09:53:16.179Z,20.88
2023-01-13T09:55:46.987Z,20.87
2023-01-13T09:58:20.412Z,20.86
2023-01-13T10:01:02.729Z,20.85
2023-01-13T10:03:36.139Z,20.84
2023-01-13T10:06:16.099Z,20.84
2023-01-13T10:08:48.580Z,20.83
2023-01-13T10:11:39.305Z,20.85
2023-01-13T10:14:19.386Z,20.86
2023-01-13T10:17:01.693Z,20.91
2023-01-13T10:19:37.889Z,20.96
2023-01-13T10:22:32.430Z,21.02
2023-01-13T10:25:21.870Z,21.11
2023-01-13T10:27:55.168Z,21.18
2023-01-13T10:30:31.577Z,21.25
2023-01-13T10:33:07.525Z,21.33
2023-01-13T10:36:00.070Z,21.39
2023-01-13T10:38:37.506Z,21.45
2023-01-13T10:41:18.743Z,21.50
2023-01-13T10:44:03.647Z,21.53
2023-01-13T10:46:36.244Z,21.58
2023-01-13T10:49:28.157Z,21.61
2023-01-13T10:51:59.058Z,21.66
2023-01-13T10:54:30.135Z,21.68
2023-01-13T10:57:22.827Z,21.71
2023-01-13T10:59:54.852Z,21.72
2023-01-13T11:02:31.116Z,21.75
2023-01-13T11:05:11.165Z,21.76
2023-01-13T11:07:47.246Z,21.77
2023-01-13T11:10:27.297Z,21.78
2023-01-13T11:13:08.586Z,21.78
2023-01-13T11:15:47.495Z,21.78
2023-01-13T11:18:25.948Z,21.78
2023-01-13T11:20:59.681Z,21.78
2023-01-13T11:23:32.577Z,21.77
2023-01-13T11:26:12.279Z,21.74
2023-01-13T11:28:57.002Z,21.75
2023-01-13T11:31:33.507Z,21.74
2023-01-13T11:34:09.707Z,21.74
2023-01-13T11:36:46.242Z,21.73
2023-01-13T11:39:27.676Z,21.72
2023-01-13T11:42:20.905Z,21.71
2023-01-13T11:45:01.617Z,21.68
2023-01-13T11:47:33.451Z,21.66
2023-01-13T11:50:08.278Z,21.67
2023-01-13T11:52:59.191Z,21.66
2023-01-13T11:55:40.947Z,21.63
2023-01-13T11:58:51.007Z,21.62
2023-01-13T12:01:35.994Z,21.61
2023-01-13T12:04:22.546Z,21.60
2023-01-13T12:07:00.443Z,21.60
2023-01-13T12:09:40.545Z,21.61
2023-01-13T12:12:27.860Z,21.60
2023-01-13T12:15:35.864Z,21.58
2023-01-13T12:18:27.831Z,21.57
2023-01-13T12:21:16.397Z,21.56
2023-01-13T12:23:55.851Z,21.55
2023-01-13T12:26:26.955Z,21.53
2023-01-13T12:29:00.458Z,21.53
2023-01-13T12:31:32.831Z,21.51
2023-01-13T12:34:21.141Z,21.50
2023-01-13T12:37:01.451Z,21.50
2023-01-13T12:39:42.402Z,21.50
2023-01-13T12:42:36.374Z,21.48
2023-01-13T12:45:28.635Z,21.45
2023-01-13T12:48:00.734Z,21.42
2023-01-13T12:51:01.705Z,21.40
2023-01-13T12:53:39.583Z,21.37
2023-01-13T12:56:44.697Z,21.34
2023-01-13T13:00:07.311Z,21.29
2023-01-13T13:02:40.161Z,21.26
2023-01-13T13:05:46.176Z,21.25
2023-01-13T13:08:23.511Z,21.23
2023-01-13T13:11:35.225Z,21.21
2023-01-13T13:14:07.743Z,21.20
2023-01-13T13:16:51.127Z,21.19
2023-01-13T13:19:44.172Z,21.18
2023-01-13T13:22:43.578Z,21.15
2023-01-13T13:25:30.231Z,21.14
2023-01-13T13:28:20.241Z,21.13
2023-01-13T13:31:06.278Z,21.12
2023-01-13T13:33:54.529Z,21.11
2023-01-13T13:36:45.673Z,21.11
2023-01-13T13:39:40.480Z,21.09
2023-01-13T13:42:36.731Z,21.05
2023-01-13T13:45:37.425Z,21.05
2023-01-13T13:48:27.636Z,21.04
2023-01-13T13:51:02.315Z,21.03
2023-01-13T13:53:36.801Z,21.02
2023-01-13T13:56:17.511Z,21.02
2023-01-13T13:58:52.477Z,21.04
2023-01-13T14:01:29.528Z,21.04
2023-01-13T14:04:16.306Z,21.04
2023-01-13T14:06:57.882Z,21.05
2023-01-13T14:09:30.931Z,21.06
2023-01-13T14:12:04.392Z,21.04
2023-01-13T14:14:35.702Z,21.02
2023-01-13T14:17:07.050Z,21.00
2023-01-13T14:19:44.271Z,20.98
2023-01-13T14:22:19.203Z,20.96
2023-01-13T14:24:55.516Z,20.93
2023-01-13T14:27:28.686Z,20.92
2023-01-13T14:30:01.852Z,20.91
2023-01-13T14:32:37.269Z,20.89
2023-01-13T14:35:10.810Z,20.87
2023-01-13T14:37:43.479Z,20.85
2023-01-13T14:40:47.029Z,20.85
2023-01-13T14:43:21.052Z,20.88
2023-01-13T14:46:03.587Z,20.92
2023-01-13T14:48:36.747Z,20.99
2023-01-13T14:51:10.955Z,21.06
2023-01-13T14:53:46.333Z,21.14
2023-01-13T14:56:51.312Z,21.20
2023-01-13T14:59:51.927Z,21.26
2023-01-13T15:02:40.608Z,21.34
2023-01-13T15:05:33.934Z,21.40
2023-01-13T15:08:11.453Z,21.46
2023-01-13T15:10:49.690Z,21.51
2023-01-13T15:13:44.269Z,21.56
2023-01-13T15:16:22.442Z,21.62
2023-01-13T15:18:53.702Z,21.67
2023-01-13T15:21:25.411Z,21.77
2023-01-13T15:23:56.304Z,21.83
2023-01-13T15:26:29.328Z,21.89
2023-01-13T15:29:01.879Z,21.93
2023-01-13T15:31:32.922Z,21.95
2023-01-13T15:34:03.773Z,21.99
2023-01-13T15:36:37.002Z,22.02
2023-01-13T15:39:08.359Z,22.06
2023-01-13T15:41:57.206Z,22.09
2023-01-13T15:44:45.852Z,22.12
2023-01-13T15:47:16.896Z,22.16
2023-01-13T15:49:48.910Z,22.18
2023-01-13T15:52:23.026Z,22.19
2023-01-13T15:54:55.154Z,22.21
2023-01-13T15:57:27.824Z,22.24
2023-01-13T16:00:02.102Z,22.28
2023-01-13T16:02:32.843Z,22.32
2023-01-13T16:05:04.035Z,22.33
2023-01-13T16:07:34.883Z,22.35
2023-01-13T16:10:08.473Z,22.38
2023-01-13T16:12:39.226Z,22.41
2023-01-13T16:15:13.842Z,22.44
2023-01-13T16:17:45.974Z,22.50
2023-01-13T16:20:19.122Z,22.52
2023-01-13T16:22:50.363Z,22.55
2023-01-13T16:25:23.433Z,22.58
2023-01-13T16:27:55.034Z,22.62
2023-01-13T16:30:28.907Z,22.68
2023-01-13T16:33:00.105Z,22.71
2023-01-13T16:35:32.754Z,22.74
2023-01-13T16:38:03.640Z,22.76
2023-01-13T16:40:36.563Z,22.77
2023-01-13T16:43:07.451Z,22.78
2023-01-13T16:45:38.344Z,22.80
2023-01-13T16:48:18.434Z,22.82
2023-01-13T16:51:10.100Z,22.86
2023-01-13T16:53:40.931Z,22.91
2023-01-13T16:56:22.370Z,22.93
2023-01-13T16:58:54.156Z,22.93
2023-01-13T17:01:27.207Z,22.95
2023-01-13T17:03:59.361Z,22.98
2023-01-13T17:06:37.062Z,22.99
2023-01-13T17:09:12.779Z,23.01
2023-01-13T17:11:43.640Z,23.02
2023-01-13T17:14:18.887Z,23.05
2023-01-13T17:16:50.747Z,23.08
2023-01-13T17:19:23.014Z,23.11
2023-01-13T17:21:54.232Z,23.14
2023-01-13T17:24:28.822Z,23.18
2023-01-13T17:26:59.632Z,23.20
2023-01-13T17:29:32.888Z,23.22
2023-01-13T17:32:05.099Z,23.26
2023-01-13T17:34:36.038Z,23.28
2023-01-13T17:37:06.939Z,23.30
2023-01-13T17:39:38.073Z,23.33
2023-01-13T17:42:09.073Z,23.36
2023-01-13T17:44:40.643Z,23.38
2023-01-13T17:47:11.795Z,23.40
2023-01-13T17:49:45.746Z,23.43
2023-01-13T17:52:16.536Z,23.47
2023-01-13T17:54:47.621Z,23.48
2023-01-13T17:57:18.439Z,23.49
2023-01-13T17:59:49.470Z,23.51
2023-01-13T18:02:20.580Z,23.54
2023-01-13T18:04:51.444Z,23.55
2023-01-13T18:07:22.393Z,23.58
2023-01-13T18:09:53.264Z,23.61
2023-01-13T18:12:24.267Z,23.64
2023-01-13T18:14:55.256Z,23.67
2023-01-13T18:17:26.632Z,23.68
2023-01-13T18:20:14.758Z,23.70
2023-01-13T18:23:03.028Z,23.72
2023-01-13T18:25:53.721Z,23.74
2023-01-13T18:28:25.185Z,23.76
2023-01-13T18:30:56.177Z,23.79
2023-01-13T18:33:27.620Z,23.80
2023-01-13T18:35:58.851Z,23.83
2023-01-13T18:38:30.272Z,23.84
2023-01-13T18:41:21.413Z,23.85
2023-01-13T18:43:52.567Z,23.87
2023-01-13T18:46:23.640Z,23.89
2023-01-13T18:48:54.823Z,23.91
2023-01-13T18:51:26.073Z,23.93
2023-01-13T18:53:57.162Z,23.95
2023-01-13T18:56:28.235Z,23.97
2023-01-13T18:58:59.260Z,23.99
2023-01-13T19:01:30.609Z,24.01
2023-01-13T19:04:04.012Z,24.02
2023-01-13T19:06:36.128Z,24.04
2023-01-13T19:09:08.820Z,24.05
2023-01-13T19:11:39.633Z,24.07
2023-01-13T19:14:10.593Z,24.11
2023-01-13T19:16:41.743Z,24.12
2023-01-13T19:19:12.815Z,24.14
2023-01-13T19:21:43.906Z,24.15
2023-01-13T19:24:14.775Z,24.15
2023-01-13T19:26:48.797Z,24.17
2023-01-13T19:29:20.035Z,24.20
2023-01-13T19:31:51.389Z,24.22
2023-01-13T19:34:25.308Z,24.24
2023-01-13T19:36:56.998Z,24.24
2023-01-13T19:39:27.988Z,24.26
2023-01-13T19:42:16.854Z,24.27
2023-01-13T19:45:06.122Z,24.28
2023-01-13T19:47:38.550Z,24.29
2023-01-13T19:50:10.973Z,24.30
2023-01-13T19:52:42.637Z,24.35
2023-01-13T19:55:14.823Z,24.36
2023-01-13T19:57:45.924Z,24.38
2023-01-13T20:00:20.835Z,24.40
2023-01-13T20:02:53.356Z,24.40
2023-01-13T20:05:26.244Z,24.41
2023-01-13T20:07:57.224Z,24.42
2023-01-13T20:10:30.502Z,24.43
2023-01-13T20:13:01.430Z,24.45
2023-01-13T20:15:32.730Z,24.46
2023-01-13T20:18:03.569Z,24.48
2023-01-13T20:20:34.778Z,24.50
2023-01-13T20:23:05.829Z,24.51
2023-01-13T20:25:36.869Z,24.51
2023-01-13T20:28:08.013Z,24.52
2023-01-13T20:30:40.587Z,24.54
2023-01-13T20:33:11.279Z,24.56
2023-01-13T20:35:42.522Z,24.56
2023-01-13T20:38:13.546Z,24.58
2023-01-13T20:40:45.353Z,24.58
2023-01-13T20:43:17.774Z,24.59
2023-01-13T20:45:50.026Z,24.62
2023-01-13T20:48:21.043Z,24.63
2023-01-13T20:50:59.127Z,24.65
2023-01-13T20:53:30.254Z,24.67
2023-01-13T20:56:01.404Z,24.70
2023-01-13T20:58:32.428Z,24.72
2023-01-13T21:01:03.758Z,24.74
2023-01-13T21:03:35.420Z,24.75
2023-01-13T21:06:06.999Z,24.76
2023-01-13T21:08:37.926Z,24.78
2023-01-13T21:11:10.741Z,24.78
2023-01-13T21:13:59.151Z,24.79
2023-01-13T21:16:30.518Z,24.79
2023-01-13T21:19:10.996Z,24.78
2023-01-13T21:21:42.352Z,24.78
2023-01-13T21:24:14.107Z,24.79
2023-01-13T21:26:44.978Z,24.79
2023-01-13T21:29:16.100Z,24.77
2023-01-13T21:31:47.039Z,24.77
2023-01-13T21:34:19.122Z,24.77
2023-01-13T21:36:50.234Z,24.75
2023-01-13T21:39:20.994Z,24.73
2023-01-13T21:42:09.700Z,24.72
2023-01-13T21:44:58.419Z,24.70
2023-01-13T21:47:47.192Z,24.69
2023-01-13T21:50:20.063Z,24.67
2023-01-13T21:52:53.147Z,24.65
2023-01-13T21:55:28.361Z,24.63
2023-01-13T21:58:01.138Z,24.60
2023-01-13T22:00:34.234Z,24.59
2023-01-13T22:03:08.034Z,24.57
2023-01-13T22:05:39.945Z,24.53
2023-01-13T22:08:13.352Z,24.48
2023-01-13T22:10:58.598Z,24.44
2023-01-13T22:13:51.391Z,24.42
2023-01-13T22:16:22.504Z,24.40
2023-01-13T22:18:53.697Z,24.37
2023-01-13T22:21:24.832Z,24.33
2023-01-13T22:23:56.919Z,24.29
2023-01-13T22:26:28.124Z,24.27
2023-01-13T22:28:59.435Z,24.24
2023-01-13T22:31:31.712Z,24.19
2023-01-13T22:34:02.950Z,24.15
2023-01-13T22:36:35.324Z,24.12
2023-01-13T22:39:07.348Z,24.08
2023-01-13T22:41:38.276Z,24.05
2023-01-13T22:44:09.362Z,24.02
2023-01-13T22:46:40.178Z,23.98
2023-01-13T22:49:12.209Z,23.95
2023-01-13T22:51:43.261Z,23.93
2023-01-13T22:54:14.892Z,23.89
2023-01-13T22:56:45.697Z,23.83
2023-01-13T22:59:17.095Z,23.81
2023-01-13T23:01:47.902Z,23.79
2023-01-13T23:04:19.020Z,23.77
2023-01-13T23:06:49.945Z,23.75
2023-01-13T23:09:20.934Z,23.72
2023-01-13T23:11:53.636Z,23.69
2023-01-13T23:14:24.508Z,23.64
2023-01-13T23:16:55.324Z,23.60
2023-01-13T23:19:26.330Z,23.59
2023-01-13T23:21:57.179Z,23.57
2023-01-13T23:24:29.368Z,23.53
2023-01-13T23:27:00.435Z,23.50
2023-01-13T23:29:31.602Z,23.48
2023-01-13T23:32:02.582Z,23.48
2023-01-13T23:34:33.574Z,23.45
2023-01-13T23:37:04.354Z,23.41
2023-01-13T23:39:35.409Z,23.36
2023-01-13T23:42:06.620Z,23.31
2023-01-13T23:44:37.731Z,23.25
2023-01-13T23:47:08.641Z,23.22
2023-01-13T23:49:39.610Z,23.17
2023-01-13T23:52:10.399Z,23.12
2023-01-13T23:54:41.207Z,23.10
2023-01-13T23:57:12.107Z,23.07
2023-01-13T23:59:42.945Z,23.04
